createdAt,value
2018-12-07T00:00:17.459Z,35.55
2018-12-07T00:02:47.463Z,32.60
2018-12-07T00:05:15.430Z,35.95
2018-12-07T00:07:43.371Z,34.15
2018-12-07T00:10:11.326Z,33.92
2018-12-07T00:12:39.319Z,35.80
2018-12-07T00:15:07.557Z,32.90
2018-12-07T00:17:35.732Z,32.90
2018-12-07T00:20:04.592Z,32.20
2018-12-07T00:22:32.515Z,31.17
2018-12-07T00:25:00.444Z,32.15
2018-12-07T00:27:28.421Z,32.58
2018-12-07T00:29:56.396Z,33.05
2018-12-07T00:32:24.328Z,33.75
2018-12-07T00:34:52.302Z,31.50
2018-12-07T00:37:20.266Z,33.70
2018-12-07T00:39:48.217Z,32.95
2018-12-07T00:42:16.135Z,33.00
2018-12-07T00:44:44.086Z,34.18
2018-12-07T00:47:12.095Z,33.70
2018-12-07T00:49:40.090Z,34.53
2018-12-07T00:52:08.078Z,35.30
2018-12-07T00:54:36.042Z,33.65
2018-12-07T00:57:04.027Z,33.98
2018-12-07T00:59:32.005Z,34.08
2018-12-07T01:01:59.953Z,32.33
2018-12-07T01:04:27.922Z,33.65
2018-12-07T01:06:56.918Z,34.33
2018-12-07T01:09:24.918Z,32.25
2018-12-07T01:11:52.852Z,32.38
2018-12-07T01:14:20.810Z,34.13
2018-12-07T01:16:48.787Z,29.50
2018-12-07T01:19:16.787Z,32.03
2018-12-07T01:21:44.746Z,33.25
2018-12-07T01:24:12.832Z,33.28
2018-12-07T01:26:40.763Z,32.17
2018-12-07T01:29:08.741Z,31.95
2018-12-07T01:31:36.701Z,33.65
2018-12-07T01:34:04.683Z,31.40
2018-12-07T01:36:32.666Z,34.35
2018-12-07T01:39:00.624Z,33.10
2018-12-07T01:41:28.587Z,32.63
2018-12-07T01:43:56.524Z,31.73
2018-12-07T01:46:24.682Z,33.70
2018-12-07T01:48:52.681Z,31.62
2018-12-07T01:51:20.656Z,30.43
2018-12-07T01:53:48.637Z,31.90
2018-12-07T01:56:16.546Z,31.65
2018-12-07T01:58:45.705Z,32.53
2018-12-07T02:01:13.663Z,29.92
2018-12-07T02:03:41.632Z,30.02
2018-12-07T02:06:09.614Z,30.17
2018-12-07T02:08:38.606Z,33.53
2018-12-07T02:11:06.566Z,34.38
2018-12-07T02:13:34.623Z,33.70
2018-12-07T02:16:02.655Z,31.97
2018-12-07T02:18:30.647Z,31.50
2018-12-07T02:20:58.646Z,32.20
2018-12-07T02:23:27.075Z,33.30
2018-12-07T02:25:55.039Z,33.75
2018-12-07T02:28:23.002Z,32.98
2018-12-07T02:30:50.946Z,35.15
2018-12-07T02:33:18.913Z,35.40
2018-12-07T02:35:46.957Z,32.83
2018-12-07T02:38:14.912Z,34.80
2018-12-07T02:40:42.839Z,33.95
2018-12-07T02:43:10.782Z,33.75
2018-12-07T02:45:38.720Z,34.05
2018-12-07T02:48:06.672Z,34.43
2018-12-07T02:50:34.773Z,33.90
2018-12-07T02:53:02.731Z,33.33
2018-12-07T02:55:30.703Z,32.88
2018-12-07T02:57:58.650Z,35.15
2018-12-07T03:00:26.591Z,35.20
2018-12-07T03:02:54.527Z,33.58
2018-12-07T03:05:22.500Z,34.53
2018-12-07T03:07:50.469Z,34.95
2018-12-07T03:10:18.423Z,33.63
2018-12-07T03:12:46.393Z,34.40
2018-12-07T03:15:14.802Z,31.85
2018-12-07T03:17:43.579Z,31.95
2018-12-07T03:20:11.551Z,32.23
2018-12-07T03:22:39.513Z,31.55
2018-12-07T03:25:07.441Z,31.48
2018-12-07T03:27:35.396Z,32.90
2018-12-07T03:30:03.905Z,32.98
2018-12-07T03:32:31.893Z,32.83
2018-12-07T03:34:59.822Z,32.33
2018-12-07T03:37:27.776Z,33.02
2018-12-07T03:39:55.724Z,31.15
2018-12-07T03:42:23.664Z,32.88
2018-12-07T03:44:51.601Z,31.97
2018-12-07T03:47:19.569Z,33.50
2018-12-07T03:49:47.587Z,32.90
2018-12-07T03:52:15.542Z,31.93
2018-12-07T03:54:43.472Z,31.42
2018-12-07T03:57:11.421Z,34.03
2018-12-07T03:59:39.338Z,32.73
2018-12-07T04:02:07.478Z,31.93
2018-12-07T04:04:35.416Z,33.90
2018-12-07T04:07:03.327Z,32.05
2018-12-07T04:09:31.278Z,32.33
2018-12-07T04:11:59.274Z,31.45
2018-12-07T04:14:27.242Z,31.45
2018-12-07T04:16:55.173Z,33.95
2018-12-07T04:19:23.450Z,32.98
2018-12-07T04:21:51.417Z,30.45
2018-12-07T04:24:19.400Z,32.13
2018-12-07T04:26:47.327Z,31.80
2018-12-07T04:29:15.274Z,30.68
2018-12-07T04:31:43.244Z,31.45
2018-12-07T04:34:11.240Z,30.57
2018-12-07T04:36:39.230Z,30.57
2018-12-07T04:39:07.212Z,32.10
2018-12-07T04:41:35.149Z,30.82
2018-12-07T04:44:03.123Z,29.87
2018-12-07T04:46:33.114Z,32.00
2018-12-07T04:49:01.148Z,30.90
2018-12-07T04:51:29.158Z,30.43
2018-12-07T04:53:57.122Z,31.37
2018-12-07T04:56:25.075Z,29.75
2018-12-07T04:58:53.029Z,31.35
2018-12-07T05:01:20.975Z,29.45
2018-12-07T05:03:48.932Z,31.57
2018-12-07T05:06:16.879Z,30.95
2018-12-07T05:08:44.837Z,30.88
2018-12-07T05:11:12.809Z,30.62
2018-12-07T05:13:40.774Z,30.20
2018-12-07T05:16:08.715Z,31.10
2018-12-07T05:18:36.663Z,33.65
2018-12-07T05:21:04.684Z,34.78
2018-12-07T05:23:32.676Z,33.78
2018-12-07T05:26:00.634Z,32.65
2018-12-07T05:28:28.641Z,35.33
2018-12-07T05:30:56.591Z,32.78
2018-12-07T05:33:24.534Z,32.20
2018-12-07T05:35:52.491Z,32.67
2018-12-07T05:38:20.413Z,33.33
2018-12-07T05:40:48.347Z,33.65
2018-12-07T05:43:16.312Z,32.93
2018-12-07T05:45:44.238Z,32.00
2018-12-07T05:48:13.223Z,31.23
2018-12-07T05:50:41.174Z,30.10
2018-12-07T05:53:09.113Z,30.65
2018-12-07T05:55:37.132Z,28.90
2018-12-07T05:58:05.067Z,28.65
2018-12-07T06:00:33.023Z,28.73
2018-12-07T06:03:01.061Z,27.48
2018-12-07T06:05:29.000Z,26.33
2018-12-07T06:07:56.961Z,27.42
2018-12-07T06:10:24.954Z,27.55
2018-12-07T06:12:52.922Z,27.75
2018-12-07T06:15:20.843Z,26.60
2018-12-07T06:17:50.233Z,24.67
2018-12-07T06:20:18.343Z,24.95
2018-12-07T06:22:46.287Z,23.90
2018-12-07T06:25:14.283Z,23.98
2018-12-07T06:27:42.379Z,27.60
2018-12-07T06:30:10.520Z,27.82
2018-12-07T06:32:38.502Z,30.68
2018-12-07T06:35:06.526Z,33.85
2018-12-07T06:37:34.494Z,31.65
2018-12-07T06:40:02.464Z,33.45
2018-12-07T06:42:30.421Z,31.82
2018-12-07T06:44:58.393Z,33.63
2018-12-07T06:47:26.446Z,34.65
2018-12-07T06:49:54.476Z,32.25
2018-12-07T06:52:22.423Z,32.60
2018-12-07T06:54:51.483Z,32.78
2018-12-07T06:57:19.435Z,31.75
2018-12-07T06:59:47.444Z,33.15
2018-12-07T07:02:15.455Z,32.08
2018-12-07T07:04:43.406Z,33.20
2018-12-07T07:07:11.365Z,31.80
2018-12-07T07:09:39.359Z,32.93
2018-12-07T07:12:07.407Z,31.45
2018-12-07T07:14:35.349Z,33.67
2018-12-07T07:17:03.456Z,33.48
2018-12-07T07:19:31.450Z,32.95
2018-12-07T07:21:59.530Z,33.38
2018-12-07T07:24:27.555Z,32.05
2018-12-07T07:26:55.534Z,35.05
2018-12-07T07:29:23.497Z,31.60
2018-12-07T07:31:51.462Z,33.35
2018-12-07T07:34:19.641Z,31.42
2018-12-07T07:36:47.861Z,30.08
2018-12-07T07:39:16.157Z,32.90
2018-12-07T07:41:44.079Z,31.65
2018-12-07T07:46:50.215Z,32.88
2018-12-07T07:49:18.147Z,32.67
2018-12-07T07:51:46.118Z,32.85
2018-12-07T07:54:15.207Z,29.37
2018-12-07T07:56:43.194Z,32.45
2018-12-07T07:59:11.234Z,30.95
2018-12-07T08:01:39.226Z,30.92
2018-12-07T08:04:07.176Z,31.70
2018-12-07T08:06:42.215Z,29.82
2018-12-07T08:09:10.193Z,29.30
2018-12-07T08:11:38.174Z,30.52
2018-12-07T08:14:06.192Z,31.27
2018-12-07T08:16:34.130Z,30.70
2018-12-07T08:19:02.098Z,31.02
2018-12-07T08:21:30.118Z,31.95
2018-12-07T08:23:58.125Z,30.52
2018-12-07T08:26:26.102Z,30.68
2018-12-07T08:28:54.109Z,31.55
2018-12-07T08:31:22.069Z,29.30
2018-12-07T08:33:50.060Z,32.58
2018-12-07T08:36:18.037Z,32.00
2018-12-07T08:38:46.000Z,30.43
2018-12-07T08:41:13.929Z,31.77
2018-12-07T08:43:41.844Z,31.85
2018-12-07T08:46:09.831Z,30.65
2018-12-07T08:48:37.767Z,30.70
2018-12-07T08:51:05.909Z,30.95
2018-12-07T08:53:33.922Z,29.40
2018-12-07T08:56:01.908Z,28.73
2018-12-07T08:58:30.949Z,28.85
2018-12-07T09:00:59.017Z,33.23
2018-12-07T09:03:26.945Z,30.73
2018-12-07T09:05:54.900Z,31.70
2018-12-07T09:08:22.895Z,31.02
2018-12-07T09:10:50.838Z,31.80
2018-12-07T09:13:19.942Z,30.90
2018-12-07T09:15:47.977Z,32.03
2018-12-07T09:18:15.927Z,32.10
2018-12-07T09:20:43.863Z,33.13
2018-12-07T09:23:11.931Z,33.87
2018-12-07T09:25:39.905Z,33.40
2018-12-07T09:28:07.905Z,35.28
2018-12-07T09:30:35.866Z,35.13
2018-12-07T09:33:03.845Z,35.70
2018-12-07T09:35:31.823Z,33.18
2018-12-07T09:37:59.818Z,29.52
2018-12-07T09:40:27.793Z,31.83
2018-12-07T09:42:55.810Z,32.73
2018-12-07T09:45:23.816Z,32.55
2018-12-07T09:47:51.789Z,33.23
2018-12-07T09:50:19.738Z,31.62
2018-12-07T09:52:47.703Z,32.75
2018-12-07T09:55:15.647Z,32.43
2018-12-07T09:57:43.625Z,32.67
2018-12-07T10:00:11.797Z,34.17
2018-12-07T10:02:39.815Z,35.43
2018-12-07T10:05:07.941Z,32.50
2018-12-07T10:07:36.203Z,34.80
2018-12-07T10:10:04.247Z,36.68
2018-12-07T10:12:32.212Z,34.40
2018-12-07T10:15:00.181Z,31.10
2018-12-07T10:17:28.125Z,32.90
2018-12-07T10:19:56.071Z,30.77
2018-12-07T10:22:24.033Z,31.23
2018-12-07T10:24:51.985Z,31.63
2018-12-07T10:27:20.033Z,29.93
2018-12-07T10:29:48.006Z,32.90
2018-12-07T10:32:16.094Z,28.00
2018-12-07T10:34:44.167Z,30.90
2018-12-07T10:37:12.127Z,30.77
2018-12-07T10:39:40.041Z,30.50
2018-12-07T10:42:08.044Z,29.47
2018-12-07T10:44:36.011Z,30.20
2018-12-07T10:47:04.314Z,30.97
2018-12-07T10:49:32.254Z,29.00
2018-12-07T10:52:00.258Z,29.77
2018-12-07T10:54:29.381Z,30.00
2018-12-07T10:57:00.614Z,29.53
2018-12-07T10:59:28.544Z,28.83
2018-12-07T11:02:02.041Z,29.30
2018-12-07T11:04:35.522Z,29.20
2018-12-07T11:07:09.431Z,26.93
2018-12-07T11:09:47.771Z,26.90
2018-12-07T11:12:21.474Z,28.70
2018-12-07T11:14:54.939Z,29.47
2018-12-07T11:17:28.369Z,27.43
2018-12-07T11:20:01.733Z,27.70
2018-12-07T11:22:36.454Z,26.80
2018-12-07T11:25:10.321Z,27.20
2018-12-07T11:27:43.814Z,28.90
2018-12-07T11:30:17.447Z,26.83
2018-12-07T11:32:51.029Z,25.67
2018-12-07T11:35:24.380Z,26.10
2018-12-07T11:37:52.493Z,27.00
2018-12-07T11:40:20.583Z,28.23
2018-12-07T11:42:50.601Z,28.30
2018-12-07T11:45:18.622Z,27.10
2018-12-07T11:47:46.571Z,27.20
2018-12-07T11:50:14.595Z,28.27
2018-12-07T11:52:50.568Z,27.70
2018-12-07T11:55:24.986Z,26.30
2018-12-07T11:57:52.989Z,25.80
2018-12-07T12:00:20.958Z,26.23
2018-12-07T12:02:48.912Z,27.43
2018-12-07T12:05:16.981Z,26.43
2018-12-07T12:07:44.961Z,28.20
2018-12-07T12:10:13.132Z,28.30
2018-12-07T12:12:42.567Z,28.23
2018-12-07T12:15:10.744Z,25.33
2018-12-07T12:17:38.750Z,26.10
2018-12-07T12:20:07.370Z,26.27
2018-12-07T12:22:35.411Z,26.67
2018-12-07T12:25:03.521Z,27.13
2018-12-07T12:27:31.496Z,27.43
2018-12-07T12:29:59.442Z,29.70
2018-12-07T12:32:27.428Z,29.43
2018-12-07T12:34:55.442Z,26.53
2018-12-07T12:37:23.454Z,26.03
2018-12-07T12:39:51.419Z,24.90
2018-12-07T12:42:19.435Z,23.70
2018-12-07T12:44:47.374Z,23.63
2018-12-07T12:47:15.378Z,26.20
2018-12-07T12:49:43.490Z,24.20
2018-12-07T12:52:11.467Z,25.37
2018-12-07T12:54:39.578Z,24.50
2018-12-07T12:57:07.593Z,21.87
2018-12-07T12:59:35.531Z,22.93
2018-12-07T13:02:03.670Z,23.80
2018-12-07T13:04:31.718Z,23.20
2018-12-07T13:06:59.662Z,22.23
2018-12-07T13:09:27.709Z,24.40
2018-12-07T13:11:55.718Z,24.37
2018-12-07T13:14:24.826Z,24.60
2018-12-07T13:16:52.788Z,24.47
2018-12-07T13:19:20.747Z,23.73
2018-12-07T13:21:48.688Z,22.30
2018-12-07T13:24:16.701Z,22.13
2018-12-07T13:26:44.665Z,23.43
2018-12-07T13:29:12.641Z,22.27
2018-12-07T13:31:40.579Z,21.93
2018-12-07T13:34:08.598Z,20.57
2018-12-07T13:36:36.545Z,21.50
2018-12-07T13:39:06.831Z,20.93
2018-12-07T13:41:35.935Z,19.43
2018-12-07T13:44:04.049Z,17.43
2018-12-07T13:46:32.194Z,15.83
2018-12-07T13:49:00.266Z,16.90
2018-12-07T13:51:29.293Z,17.50
2018-12-07T13:53:57.459Z,16.27
2018-12-07T13:56:25.479Z,16.03
2018-12-07T13:58:53.536Z,16.03
2018-12-07T14:01:21.760Z,14.73
2018-12-07T14:03:49.962Z,16.73
2018-12-07T14:06:18.096Z,19.10
2018-12-07T14:08:46.297Z,18.77
2018-12-07T14:11:14.346Z,18.80
2018-12-07T14:13:42.457Z,17.90
2018-12-07T14:16:10.542Z,18.30
2018-12-07T14:18:38.651Z,20.23
2018-12-07T14:21:06.719Z,19.53
2018-12-07T14:23:35.880Z,20.00
2018-12-07T14:26:04.178Z,19.93
2018-12-07T14:28:32.320Z,21.67
2018-12-07T14:31:00.487Z,19.80
2018-12-07T14:33:28.679Z,20.40
2018-12-07T14:35:56.881Z,19.10
2018-12-07T14:38:25.140Z,18.73
2018-12-07T14:40:53.401Z,19.70
2018-12-07T14:43:21.527Z,19.87
2018-12-07T14:45:49.593Z,19.50
2018-12-07T14:48:17.696Z,21.07
2018-12-07T14:50:45.764Z,22.03
2018-12-07T14:53:14.001Z,22.37
2018-12-07T14:55:42.222Z,21.63
2018-12-07T14:58:10.431Z,21.63
2018-12-07T15:00:38.478Z,23.23
2018-12-07T15:03:06.777Z,23.70
2018-12-07T15:05:35.066Z,22.47
2018-12-07T15:08:03.340Z,21.60
2018-12-07T15:10:31.366Z,23.00
2018-12-07T15:12:59.691Z,20.80
2018-12-07T15:15:27.859Z,23.20
2018-12-07T15:17:56.132Z,22.33
2018-12-07T15:20:24.244Z,22.40
2018-12-07T15:22:52.242Z,22.00
2018-12-07T15:25:21.076Z,24.07
2018-12-07T15:27:49.265Z,25.07
2018-12-07T15:30:17.560Z,23.40
2018-12-07T15:32:45.902Z,22.20
2018-12-07T15:35:14.213Z,23.47
2018-12-07T15:37:42.264Z,22.83
2018-12-07T15:40:10.783Z,23.70
2018-12-07T15:42:39.878Z,25.70
2018-12-07T15:45:08.636Z,25.40
2018-12-07T15:47:36.722Z,24.17
2018-12-07T15:50:06.498Z,22.13
2018-12-07T15:52:34.863Z,22.10
2018-12-07T15:55:03.117Z,25.30
2018-12-07T15:57:31.261Z,24.72
2018-12-07T15:59:59.314Z,26.12
2018-12-07T16:02:27.505Z,26.90
2018-12-07T16:04:55.654Z,28.45
2018-12-07T16:07:23.925Z,28.07
2018-12-07T16:09:52.020Z,27.93
2018-12-07T16:12:20.327Z,26.77
2018-12-07T16:14:48.543Z,26.60
2018-12-07T16:17:16.711Z,25.50
2018-12-07T16:19:44.841Z,25.47
2018-12-07T16:22:12.972Z,25.43
2018-12-07T16:24:41.097Z,30.30
2018-12-07T16:27:09.691Z,24.60
2018-12-07T16:29:38.171Z,24.60
2018-12-07T16:32:06.209Z,25.00
2018-12-07T16:34:34.356Z,27.15
2018-12-07T16:37:02.410Z,23.42
2018-12-07T16:39:30.413Z,26.68
2018-12-07T16:41:58.626Z,26.10
2018-12-07T16:44:26.762Z,26.27
2018-12-07T16:46:56.158Z,27.70
2018-12-07T16:49:24.322Z,25.88
2018-12-07T16:51:52.427Z,27.42
2018-12-07T16:54:20.758Z,27.70
2018-12-07T16:56:49.061Z,27.42
2018-12-07T16:59:17.396Z,27.42
2018-12-07T17:01:45.639Z,27.00
2018-12-07T17:04:14.112Z,28.07
2018-12-07T17:06:42.263Z,26.68
2018-12-07T17:09:10.293Z,29.95
2018-12-07T17:11:38.470Z,27.50
2018-12-07T17:14:06.742Z,25.32
2018-12-07T17:16:34.969Z,26.07
2018-12-07T17:19:03.297Z,26.60
2018-12-07T17:21:31.394Z,28.47
2018-12-07T17:23:59.563Z,27.75
2018-12-07T17:26:27.740Z,25.85
2018-12-07T17:28:55.960Z,25.25
2018-12-07T17:31:24.319Z,24.80
2018-12-07T17:33:52.534Z,23.93
2018-12-07T17:36:20.651Z,23.97
2018-12-07T17:38:48.958Z,23.70
2018-12-07T17:41:17.302Z,27.77
2018-12-07T17:43:45.635Z,27.17
2018-12-07T17:46:14.111Z,27.77
2018-12-07T17:48:42.434Z,29.95
2018-12-07T17:51:10.620Z,26.82
2018-12-07T17:53:38.936Z,25.37
2018-12-07T17:56:07.165Z,27.77
2018-12-07T17:58:35.657Z,25.85
2018-12-07T18:01:03.843Z,26.25
2018-12-07T18:03:31.966Z,28.55
2018-12-07T18:06:00.158Z,28.73
2018-12-07T18:08:28.479Z,28.40
2018-12-07T18:10:56.640Z,32.58
2018-12-07T18:13:24.772Z,32.53
2018-12-07T18:15:52.870Z,30.02
2018-12-07T18:18:21.558Z,31.60
2018-12-07T18:20:50.128Z,32.25
2018-12-07T18:23:19.340Z,30.40
2018-12-07T18:25:47.589Z,30.30
2018-12-07T18:28:15.733Z,29.23
2018-12-07T18:30:44.027Z,27.10
2018-12-07T18:33:12.224Z,26.90
2018-12-07T18:35:40.403Z,28.40
2018-12-07T18:38:08.557Z,27.40
2018-12-07T18:40:36.691Z,28.02
2018-12-07T18:43:04.849Z,28.70
2018-12-07T18:45:33.186Z,28.00
2018-12-07T18:48:01.632Z,28.10
2018-12-07T18:50:29.839Z,27.80
2018-12-07T18:52:57.982Z,30.62
2018-12-07T18:55:26.073Z,30.85
2018-12-07T18:57:54.351Z,30.92
2018-12-07T19:00:22.812Z,29.75
2018-12-07T19:02:51.130Z,30.30
2018-12-07T19:05:19.191Z,32.00
2018-12-07T19:07:47.479Z,33.35
2018-12-07T19:10:15.740Z,33.33
2018-12-07T19:12:43.979Z,33.75
2018-12-07T19:15:12.482Z,32.33
2018-12-07T19:17:40.923Z,29.32
2018-12-07T19:20:09.375Z,27.35
2018-12-07T19:22:37.727Z,30.77
2018-12-07T19:25:06.702Z,32.08
2018-12-07T19:27:34.899Z,30.30
2018-12-07T19:30:03.212Z,32.58
2018-12-07T19:32:31.426Z,32.63
2018-12-07T19:34:59.714Z,34.78
2018-12-07T19:37:28.310Z,31.97
2018-12-07T19:39:56.670Z,30.82
2018-12-07T19:42:25.068Z,31.07
2018-12-07T19:44:53.302Z,35.03
2018-12-07T19:47:21.623Z,32.30
2018-12-07T19:49:49.970Z,31.17
2018-12-07T19:52:18.436Z,29.63
2018-12-07T19:54:46.644Z,30.92
2018-12-07T19:57:14.788Z,27.67
2018-12-07T19:59:42.868Z,27.87
2018-12-07T20:02:11.182Z,27.20
2018-12-07T20:04:39.526Z,26.50
2018-12-07T20:07:07.897Z,26.20
2018-12-07T20:09:36.114Z,26.20
2018-12-07T20:12:04.465Z,25.65
2018-12-07T20:14:32.516Z,27.05
2018-12-07T20:17:00.543Z,38.55
2018-12-07T20:19:28.633Z,37.85
2018-12-07T20:21:56.746Z,38.35
2018-12-07T20:24:24.912Z,38.78
2018-12-07T20:26:53.288Z,38.15
2018-12-07T20:29:22.905Z,36.48
2018-12-07T20:31:51.086Z,36.20
2018-12-07T20:34:19.319Z,36.42
2018-12-07T20:36:47.642Z,35.63
2018-12-07T20:39:15.705Z,33.63
2018-12-07T20:41:43.736Z,35.90
2018-12-07T20:44:11.940Z,36.48
2018-12-07T20:46:40.121Z,35.13
2018-12-07T20:49:08.234Z,32.80
2018-12-07T20:51:36.634Z,33.30
2018-12-07T20:54:04.744Z,33.15
2018-12-07T20:56:33.319Z,31.15
2018-12-07T20:59:01.703Z,31.85
2018-12-07T21:01:30.305Z,32.93
2018-12-07T21:04:19.464Z,34.63
2018-12-07T21:06:58.781Z,34.83
2018-12-07T21:09:30.784Z,33.38
2018-12-07T21:12:07.634Z,34.65
2018-12-07T21:14:39.558Z,33.95
2018-12-07T21:17:11.260Z,31.73
2018-12-07T21:19:43.322Z,32.10
2018-12-07T21:22:12.194Z,33.70
2018-12-07T21:24:40.491Z,31.30
2018-12-07T21:27:08.709Z,32.53
2018-12-07T21:29:37.095Z,32.40
2018-12-07T21:32:06.918Z,35.43
2018-12-07T21:34:40.941Z,32.13
2018-12-07T21:37:09.450Z,32.55
2018-12-07T21:39:44.133Z,31.30
2018-12-07T21:42:12.609Z,30.82
2018-12-07T21:44:40.922Z,30.80
2018-12-07T21:47:09.078Z,31.35
2018-12-07T21:49:41.781Z,28.67
2018-12-07T21:52:11.776Z,31.50
2018-12-07T21:54:39.938Z,31.35
2018-12-07T21:57:08.085Z,30.93
2018-12-07T21:59:36.336Z,28.57
2018-12-07T22:02:04.590Z,31.90
2018-12-07T22:04:32.711Z,27.22
2018-12-07T22:07:01.062Z,26.55
2018-12-07T22:09:29.275Z,23.95
2018-12-07T22:11:57.567Z,26.27
2018-12-07T22:14:25.815Z,25.50
2018-12-07T22:16:53.817Z,25.25
2018-12-07T22:19:21.996Z,25.33
2018-12-07T22:21:50.174Z,24.12
2018-12-07T22:24:18.283Z,21.87
2018-12-07T22:26:46.609Z,22.77
2018-12-07T22:29:14.926Z,22.05
2018-12-07T22:31:42.972Z,23.38
2018-12-07T22:34:11.081Z,21.70
2018-12-07T22:36:39.283Z,21.73
2018-12-07T22:39:07.915Z,23.70
2018-12-07T22:41:36.460Z,29.52
2018-12-07T22:44:04.646Z,29.65
2018-12-07T22:46:32.963Z,32.13
2018-12-07T22:49:01.122Z,31.85
2018-12-07T22:51:30.747Z,32.08
2018-12-07T22:53:59.136Z,32.17
2018-12-07T22:56:27.152Z,37.73
2018-12-07T22:58:55.175Z,33.55
2018-12-07T23:01:23.244Z,30.70
2018-12-07T23:03:51.270Z,30.75
2018-12-07T23:06:19.347Z,31.87
2018-12-07T23:08:47.381Z,30.85
2018-12-07T23:11:15.479Z,29.87
2018-12-07T23:13:43.480Z,30.27
2018-12-07T23:16:11.642Z,30.57
2018-12-07T23:18:39.706Z,29.85
2018-12-07T23:21:07.707Z,32.93
2018-12-07T23:23:35.857Z,31.57
2018-12-07T23:26:04.012Z,32.53
2018-12-07T23:28:32.149Z,32.67
2018-12-07T23:31:00.109Z,30.92
2018-12-07T23:33:28.280Z,32.28
2018-12-07T23:35:56.335Z,33.30
2018-12-07T23:38:24.403Z,33.42
2018-12-07T23:40:52.419Z,32.73
2018-12-07T23:43:20.422Z,31.05
2018-12-07T23:45:48.447Z,31.20
2018-12-07T23:48:16.465Z,34.48
2018-12-07T23:50:44.482Z,32.10
2018-12-07T23:53:12.461Z,31.68
2018-12-07T23:55:40.420Z,31.42
2018-12-07T23:58:08.416Z,29.52
